Accueil
METAR-TAF:

METAR-TAF

Aéroports :

Aéroport Constantin-le-Grand de Niš

Niš, Serbie

latitude: 43-20N, longitude: 021-54E, altitude: 202 m

Observation

Le bulletin a été fait il y a 34 minutes, à 18:30 UTC
Vent 8 kt de est
Température 32°C
Humidité 34%
Pression 1011 hPa
Visibilité 10 km ou plus
pas de nuages en-dessous de 1500 mètres et pas de cumulonimbus.

METAR: LYNI 131830Z 09008KT CAVOK 32/14 Q1011 NOSIG

Heure: 21:04 (19:04 UTC)

Prévision

Le bulletin a été fait il y a 2 heures et 4 minutes, à 17:00 UTC
Prévision valable du 13 à 18 UTC au 14 à 18 UTC
Vent 8 kt de est
Visibilité 10 km ou plus
pas de nuages en-dessous de 1500 mètres et pas de cumulonimbus.

TAF: LYNI 131700Z 1318/1418 08008KT CAVOK TX39/1413Z TN21/1403Z

Observations et prévisions météorologiques de plus de 4000 aéroports (messages METAR et TAF).

Les stations disponibles sont représentées par des disques jaunes et rouges sur la carte.

Passer la souris dessus pour voir le nom de la station.

Cliquer dessus pour voir les observations et prévisions météorologiques.

Pour changer de carte: cliquez sur les boutons verts avec une croix noire pour zoomer, sur le bouton vert avec un tiret pour effectuer un zoom arrière, ou sur les flèches vertes pour les cartes adjacentes.


METAR-TAF: